sensor_id;sensor_type;location;lat;lon;timestamp;temperature;humidity
72576;DHT22;60613;48.658;2.328;2023-05-07T06:02:40;22.90;49.10
72576;DHT22;60613;48.658;2.328;2023-05-07T06:05:06;22.80;51.10
72576;DHT22;60613;48.658;2.328;2023-05-07T06:07:31;22.80;49.90
72576;DHT22;60613;48.658;2.328;2023-05-07T06:09:57;22.90;49.80
72576;DHT22;60613;48.658;2.328;2023-05-07T06:12:22;22.90;49.60
72576;DHT22;60613;48.658;2.328;2023-05-07T06:14:48;22.90;49.50
72576;DHT22;60613;48.658;2.328;2023-05-07T06:17:14;23.00;49.40
72576;DHT22;60613;48.658;2.328;2023-05-07T06:19:39;23.00;49.30
72576;DHT22;60613;48.658;2.328;2023-05-07T06:22:05;23.00;49.30
72576;DHT22;60613;48.658;2.328;2023-05-07T06:24:30;23.00;49.30
72576;DHT22;60613;48.658;2.328;2023-05-07T06:26:56;23.00;49.30
72576;DHT22;60613;48.658;2.328;2023-05-07T06:29:23;23.10;49.20
72576;DHT22;60613;48.658;2.328;2023-05-07T06:31:54;23.00;49.10
72576;DHT22;60613;48.658;2.328;2023-05-07T06:34:20;23.10;49.10
72576;DHT22;60613;48.658;2.328;2023-05-07T06:36:45;23.10;49.00
72576;DHT22;60613;48.658;2.328;2023-05-07T06:39:11;23.10;49.10
72576;DHT22;60613;48.658;2.328;2023-05-07T06:41:36;23.10;49.00
72576;DHT22;60613;48.658;2.328;2023-05-07T06:44:02;23.10;49.20
72576;DHT22;60613;48.658;2.328;2023-05-07T06:46:28;23.10;49.10
72576;DHT22;60613;48.658;2.328;2023-05-07T06:48:54;23.10;49.10
72576;DHT22;60613;48.658;2.328;2023-05-07T06:51:22;23.10;49.30
72576;DHT22;60613;48.658;2.328;2023-05-07T06:53:47;23.10;49.30
72576;DHT22;60613;48.658;2.328;2023-05-07T06:56:13;23.10;49.20
72576;DHT22;60613;48.658;2.328;2023-05-07T06:58:38;23.10;49.10
72576;DHT22;60613;48.658;2.328;2023-05-07T07:01:04;23.10;49.10
72576;DHT22;60613;48.658;2.328;2023-05-07T07:03:30;23.10;49.00
72576;DHT22;60613;48.658;2.328;2023-05-07T07:05:55;23.10;49.00
72576;DHT22;60613;48.658;2.328;2023-05-07T07:08:22;23.10;49.00
72576;DHT22;60613;48.658;2.328;2023-05-07T07:10:47;23.10;48.80
72576;DHT22;60613;48.658;2.328;2023-05-07T07:13:13;23.10;51.30
72576;DHT22;60613;48.658;2.328;2023-05-07T07:15:39;23.00;51.90
72576;DHT22;60613;48.658;2.328;2023-05-07T07:18:05;23.00;51.40
72576;DHT22;60613;48.658;2.328;2023-05-07T07:20:31;23.20;50.30
72576;DHT22;60613;48.658;2.328;2023-05-07T07:22:57;23.30;50.40
72576;DHT22;60613;48.658;2.328;2023-05-07T07:25:23;23.40;50.30
72576;DHT22;60613;48.658;2.328;2023-05-07T07:27:49;23.50;49.90
72576;DHT22;60613;48.658;2.328;2023-05-07T07:30:15;23.50;49.90
72576;DHT22;60613;48.658;2.328;2023-05-07T07:32:43;23.40;50.50
72576;DHT22;60613;48.658;2.328;2023-05-07T07:35:09;23.50;50.50
72576;DHT22;60613;48.658;2.328;2023-05-07T07:37:35;23.50;50.40
72576;DHT22;60613;48.658;2.328;2023-05-07T07:40:00;23.50;50.50
72576;DHT22;60613;48.658;2.328;2023-05-07T07:42:26;23.50;51.10
72576;DHT22;60613;48.658;2.328;2023-05-07T07:44:52;23.30;52.10
72576;DHT22;60613;48.658;2.328;2023-05-07T07:47:17;23.20;52.40
72576;DHT22;60613;48.658;2.328;2023-05-07T07:49:43;23.10;52.90
72576;DHT22;60613;48.658;2.328;2023-05-07T07:52:09;23.10;52.80
72576;DHT22;60613;48.658;2.328;2023-05-07T07:54:34;23.10;52.60
72576;DHT22;60613;48.658;2.328;2023-05-07T07:57:00;23.00;53.10
72576;DHT22;60613;48.658;2.328;2023-05-07T07:59:27;22.90;53.30
72576;DHT22;60613;48.658;2.328;2023-05-07T08:01:52;22.80;53.40
72576;DHT22;60613;48.658;2.328;2023-05-07T08:04:21;22.80;53.40
72576;DHT22;60613;48.658;2.328;2023-05-07T08:06:46;22.80;53.60
72576;DHT22;60613;48.658;2.328;2023-05-07T08:09:12;22.80;53.10
72576;DHT22;60613;48.658;2.328;2023-05-07T08:11:38;22.90;52.60
72576;DHT22;60613;48.658;2.328;2023-05-07T08:14:04;23.00;52.10
72576;DHT22;60613;48.658;2.328;2023-05-07T08:16:30;23.10;51.90
72576;DHT22;60613;48.658;2.328;2023-05-07T08:18:55;23.10;51.70
72576;DHT22;60613;48.658;2.328;2023-05-07T08:21:22;23.20;51.40
72576;DHT22;60613;48.658;2.328;2023-05-07T08:23:48;23.30;51.10
72576;DHT22;60613;48.658;2.328;2023-05-07T08:26:13;23.30;51.00
72576;DHT22;60613;48.658;2.328;2023-05-07T08:28:39;23.40;50.70
72576;DHT22;60613;48.658;2.328;2023-05-07T08:31:05;23.50;50.50
72576;DHT22;60613;48.658;2.328;2023-05-07T08:33:31;23.60;50.40
72576;DHT22;60613;48.658;2.328;2023-05-07T08:35:56;23.50;50.60
72576;DHT22;60613;48.658;2.328;2023-05-07T08:38:22;23.60;50.90
72576;DHT22;60613;48.658;2.328;2023-05-07T08:40:48;23.60;50.80
72576;DHT22;60613;48.658;2.328;2023-05-07T08:43:14;23.80;51.10
72576;DHT22;60613;48.658;2.328;2023-05-07T08:45:40;23.80;50.80
72576;DHT22;60613;48.658;2.328;2023-05-07T08:48:15;23.90;50.30
72576;DHT22;60613;48.658;2.328;2023-05-07T08:50:41;23.90;51.30
72576;DHT22;60613;48.658;2.328;2023-05-07T08:53:07;24.00;50.10
72576;DHT22;60613;48.658;2.328;2023-05-07T08:55:32;24.00;49.90
72576;DHT22;60613;48.658;2.328;2023-05-07T08:57:59;24.00;49.70
72576;DHT22;60613;48.658;2.328;2023-05-07T09:00:24;24.00;49.40
72576;DHT22;60613;48.658;2.328;2023-05-07T09:02:51;24.00;49.90
72576;DHT22;60613;48.658;2.328;2023-05-07T09:05:17;23.90;50.30
72576;DHT22;60613;48.658;2.328;2023-05-07T09:07:42;23.90;50.10
72576;DHT22;60613;48.658;2.328;2023-05-07T09:10:10;23.90;50.20
72576;DHT22;60613;48.658;2.328;2023-05-07T09:12:35;23.90;50.30
72576;DHT22;60613;48.658;2.328;2023-05-07T09:15:01;24.00;50.30
72576;DHT22;60613;48.658;2.328;2023-05-07T09:17:28;24.10;50.50
72576;DHT22;60613;48.658;2.328;2023-05-07T09:19:54;24.10;50.40
72576;DHT22;60613;48.658;2.328;2023-05-07T09:22:20;24.10;51.90
72576;DHT22;60613;48.658;2.328;2023-05-07T09:24:50;24.10;51.60
72576;DHT22;60613;48.658;2.328;2023-05-07T09:27:17;24.10;50.60
72576;DHT22;60613;48.658;2.328;2023-05-07T09:29:43;24.10;51.00
72576;DHT22;60613;48.658;2.328;2023-05-07T09:32:13;24.10;50.50
72576;DHT22;60613;48.658;2.328;2023-05-07T09:34:40;24.20;50.20
72576;DHT22;60613;48.658;2.328;2023-05-07T09:37:06;24.20;49.80
72576;DHT22;60613;48.658;2.328;2023-05-07T09:39:43;24.30;49.60
72576;DHT22;60613;48.658;2.328;2023-05-07T09:42:09;24.30;49.80
72576;DHT22;60613;48.658;2.328;2023-05-07T09:44:37;24.30;49.90
72576;DHT22;60613;48.658;2.328;2023-05-07T09:47:05;24.30;49.70
72576;DHT22;60613;48.658;2.328;2023-05-07T09:49:34;24.10;49.50
72576;DHT22;60613;48.658;2.328;2023-05-07T09:52:01;24.20;50.70
72576;DHT22;60613;48.658;2.328;2023-05-07T09:54:28;24.20;49.40
72576;DHT22;60613;48.658;2.328;2023-05-07T09:56:55;24.10;49.50
72576;DHT22;60613;48.658;2.328;2023-05-07T09:59:21;24.10;50.50
72576;DHT22;60613;48.658;2.328;2023-05-07T10:01:49;24.10;49.40
72576;DHT22;60613;48.658;2.328;2023-05-07T10:04:17;24.10;49.30
72576;DHT22;60613;48.658;2.328;2023-05-07T10:06:44;24.10;49.30
72576;DHT22;60613;48.658;2.328;2023-05-07T10:09:10;24.10;49.40
72576;DHT22;60613;48.658;2.328;2023-05-07T10:11:37;24.10;49.30
72576;DHT22;60613;48.658;2.328;2023-05-07T10:14:03;24.10;49.10
72576;DHT22;60613;48.658;2.328;2023-05-07T10:16:32;24.10;49.10
72576;DHT22;60613;48.658;2.328;2023-05-07T10:19:05;24.10;49.00
72576;DHT22;60613;48.658;2.328;2023-05-07T10:21:35;24.10;48.90
72576;DHT22;60613;48.658;2.328;2023-05-07T10:24:19;24.10;48.90
72576;DHT22;60613;48.658;2.328;2023-05-07T10:26:48;24.10;49.10
72576;DHT22;60613;48.658;2.328;2023-05-07T10:34:24;24.20;49.10
72576;DHT22;60613;48.658;2.328;2023-05-07T10:36:51;24.30;49.20
72576;DHT22;60613;48.658;2.328;2023-05-07T10:39:17;24.30;49.20
72576;DHT22;60613;48.658;2.328;2023-05-07T10:41:44;24.40;49.10
72576;DHT22;60613;48.658;2.328;2023-05-07T10:44:10;24.40;49.20
72576;DHT22;60613;48.658;2.328;2023-05-07T10:46:36;24.40;49.20
72576;DHT22;60613;48.658;2.328;2023-05-07T10:51:32;24.40;49.70
72576;DHT22;60613;48.658;2.328;2023-05-07T10:56:39;24.30;50.30
72576;DHT22;60613;48.658;2.328;2023-05-07T11:01:56;24.30;50.20
72576;DHT22;60613;48.658;2.328;2023-05-07T11:04:23;24.40;50.40
72576;DHT22;60613;48.658;2.328;2023-05-07T11:15:10;24.40;51.00
72576;DHT22;60613;48.658;2.328;2023-05-07T11:17:56;24.40;51.20
72576;DHT22;60613;48.658;2.328;2023-05-07T11:20:44;24.40;51.20
72576;DHT22;60613;48.658;2.328;2023-05-07T11:26:02;24.40;51.40
72576;DHT22;60613;48.658;2.328;2023-05-07T11:28:30;24.40;52.50
72576;DHT22;60613;48.658;2.328;2023-05-07T11:30:56;24.40;51.30
72576;DHT22;60613;48.658;2.328;2023-05-07T11:33:23;24.40;51.60
72576;DHT22;60613;48.658;2.328;2023-05-07T11:35:52;24.40;51.10
72576;DHT22;60613;48.658;2.328;2023-05-07T11:38:19;24.40;51.30
72576;DHT22;60613;48.658;2.328;2023-05-07T11:40:52;24.30;51.60
72576;DHT22;60613;48.658;2.328;2023-05-07T11:43:19;24.40;51.80
72576;DHT22;60613;48.658;2.328;2023-05-07T11:45:45;24.40;51.10
72576;DHT22;60613;48.658;2.328;2023-05-07T11:48:12;24.40;51.20
72576;DHT22;60613;48.658;2.328;2023-05-07T11:50:59;24.50;51.20
72576;DHT22;60613;48.658;2.328;2023-05-07T11:53:25;24.50;51.60
72576;DHT22;60613;48.658;2.328;2023-05-07T11:55:57;24.40;52.00
72576;DHT22;60613;48.658;2.328;2023-05-07T11:58:24;24.40;52.10
72576;DHT22;60613;48.658;2.328;2023-05-07T12:00:54;24.40;51.90
72576;DHT22;60613;48.658;2.328;2023-05-07T12:03:20;24.40;52.00
72576;DHT22;60613;48.658;2.328;2023-05-07T12:05:46;24.40;52.20
72576;DHT22;60613;48.658;2.328;2023-05-07T12:08:16;24.40;52.30
72576;DHT22;60613;48.658;2.328;2023-05-07T12:10:46;24.40;52.30
72576;DHT22;60613;48.658;2.328;2023-05-07T12:13:22;24.40;52.30
72576;DHT22;60613;48.658;2.328;2023-05-07T12:15:52;24.30;52.10
72576;DHT22;60613;48.658;2.328;2023-05-07T12:18:18;24.30;52.50
72576;DHT22;60613;48.658;2.328;2023-05-07T12:20:45;24.30;52.80
72576;DHT22;60613;48.658;2.328;2023-05-07T12:23:12;24.30;52.70
72576;DHT22;60613;48.658;2.328;2023-05-07T12:25:38;24.30;52.60
72576;DHT22;60613;48.658;2.328;2023-05-07T12:28:05;24.30;52.70
72576;DHT22;60613;48.658;2.328;2023-05-07T12:30:38;24.30;53.10
72576;DHT22;60613;48.658;2.328;2023-05-07T12:33:04;24.40;52.60
72576;DHT22;60613;48.658;2.328;2023-05-07T12:35:41;24.30;52.60
72576;DHT22;60613;48.658;2.328;2023-05-07T12:38:14;24.40;52.70
72576;DHT22;60613;48.658;2.328;2023-05-07T12:40:44;24.40;52.40
72576;DHT22;60613;48.658;2.328;2023-05-07T12:43:17;24.40;52.70
72576;DHT22;60613;48.658;2.328;2023-05-07T12:45:44;24.40;52.70
72576;DHT22;60613;48.658;2.328;2023-05-07T12:48:11;24.30;52.90
72576;DHT22;60613;48.658;2.328;2023-05-07T12:50:36;24.30;52.50
72576;DHT22;60613;48.658;2.328;2023-05-07T12:53:06;24.30;52.70
72576;DHT22;60613;48.658;2.328;2023-05-07T12:55:44;24.40;52.90
72576;DHT22;60613;48.658;2.328;2023-05-07T12:58:20;24.30;52.50
72576;DHT22;60613;48.658;2.328;2023-05-07T13:00:50;24.40;52.60
72576;DHT22;60613;48.658;2.328;2023-05-07T13:03:26;24.30;52.80
72576;DHT22;60613;48.658;2.328;2023-05-07T13:05:53;24.30;52.40
72576;DHT22;60613;48.658;2.328;2023-05-07T13:08:30;24.40;52.60
72576;DHT22;60613;48.658;2.328;2023-05-07T13:10:58;24.40;52.60
72576;DHT22;60613;48.658;2.328;2023-05-07T13:13:25;24.30;52.50
72576;DHT22;60613;48.658;2.328;2023-05-07T13:15:50;24.40;52.30
72576;DHT22;60613;48.658;2.328;2023-05-07T13:18:17;24.40;52.30
72576;DHT22;60613;48.658;2.328;2023-05-07T13:20:42;24.40;52.30
72576;DHT22;60613;48.658;2.328;2023-05-07T13:23:08;24.40;52.10
72576;DHT22;60613;48.658;2.328;2023-05-07T13:25:34;24.40;53.40
72576;DHT22;60613;48.658;2.328;2023-05-07T13:28:00;24.40;52.30
72576;DHT22;60613;48.658;2.328;2023-05-07T13:30:25;24.40;52.10
72576;DHT22;60613;48.658;2.328;2023-05-07T13:32:53;24.40;52.10
72576;DHT22;60613;48.658;2.328;2023-05-07T13:35:20;24.40;52.10
72576;DHT22;60613;48.658;2.328;2023-05-07T13:37:46;24.40;52.10
72576;DHT22;60613;48.658;2.328;2023-05-07T13:40:13;24.40;52.10
72576;DHT22;60613;48.658;2.328;2023-05-07T13:42:39;24.40;53.40
72576;DHT22;60613;48.658;2.328;2023-05-07T13:45:04;24.40;52.20
72576;DHT22;60613;48.658;2.328;2023-05-07T13:47:30;24.40;51.90
72576;DHT22;60613;48.658;2.328;2023-05-07T13:49:56;24.40;51.90
72576;DHT22;60613;48.658;2.328;2023-05-07T13:52:22;24.40;51.80
72576;DHT22;60613;48.658;2.328;2023-05-07T13:54:47;24.40;51.90
72576;DHT22;60613;48.658;2.328;2023-05-07T13:57:13;24.50;51.60
72576;DHT22;60613;48.658;2.328;2023-05-07T13:59:38;24.40;52.80
72576;DHT22;60613;48.658;2.328;2023-05-07T14:02:04;24.40;51.70
72576;DHT22;60613;48.658;2.328;2023-05-07T14:04:30;24.40;51.50
72576;DHT22;60613;48.658;2.328;2023-05-07T14:06:56;24.50;51.60
72576;DHT22;60613;48.658;2.328;2023-05-07T14:09:22;24.50;51.50
72576;DHT22;60613;48.658;2.328;2023-05-07T14:11:47;24.50;51.40
72576;DHT22;60613;48.658;2.328;2023-05-07T14:14:17;24.50;51.50
72576;DHT22;60613;48.658;2.328;2023-05-07T14:16:42;24.50;51.40
72576;DHT22;60613;48.658;2.328;2023-05-07T14:19:08;24.50;51.50
72576;DHT22;60613;48.658;2.328;2023-05-07T14:21:33;24.50;51.50
72576;DHT22;60613;48.658;2.328;2023-05-07T14:23:59;24.50;51.30
72576;DHT22;60613;48.658;2.328;2023-05-07T14:26:25;24.50;51.30
72576;DHT22;60613;48.658;2.328;2023-05-07T14:28:52;24.40;51.40
72576;DHT22;60613;48.658;2.328;2023-05-07T14:31:20;24.40;51.30
72576;DHT22;60613;48.658;2.328;2023-05-07T14:33:46;24.40;51.30
72576;DHT22;60613;48.658;2.328;2023-05-07T14:36:12;24.40;51.30
72576;DHT22;60613;48.658;2.328;2023-05-07T14:38:37;24.40;51.20
72576;DHT22;60613;48.658;2.328;2023-05-07T14:41:03;24.40;51.30
72576;DHT22;60613;48.658;2.328;2023-05-07T14:43:29;24.40;51.40
72576;DHT22;60613;48.658;2.328;2023-05-07T14:45:54;24.40;51.30
72576;DHT22;60613;48.658;2.328;2023-05-07T14:48:20;24.50;51.30
72576;DHT22;60613;48.658;2.328;2023-05-07T14:50:49;24.50;51.10
72576;DHT22;60613;48.658;2.328;2023-05-07T14:53:15;24.50;51.20
72576;DHT22;60613;48.658;2.328;2023-05-07T14:55:41;24.50;51.40
72576;DHT22;60613;48.658;2.328;2023-05-07T14:58:06;24.50;51.20
72576;DHT22;60613;48.658;2.328;2023-05-07T15:00:33;24.50;51.20
72576;DHT22;60613;48.658;2.328;2023-05-07T15:03:06;24.50;51.10
72576;DHT22;60613;48.658;2.328;2023-05-07T15:05:32;24.60;51.30
72576;DHT22;60613;48.658;2.328;2023-05-07T15:07:58;24.60;51.30
72576;DHT22;60613;48.658;2.328;2023-05-07T15:10:24;24.60;51.10
72576;DHT22;60613;48.658;2.328;2023-05-07T15:12:50;24.50;51.30
72576;DHT22;60613;48.658;2.328;2023-05-07T15:15:15;24.60;51.30
72576;DHT22;60613;48.658;2.328;2023-05-07T15:17:41;24.60;51.50
72576;DHT22;60613;48.658;2.328;2023-05-07T15:20:07;24.50;51.00
72576;DHT22;60613;48.658;2.328;2023-05-07T15:22:33;24.60;51.30
72576;DHT22;60613;48.658;2.328;2023-05-07T15:24:59;24.60;51.30
72576;DHT22;60613;48.658;2.328;2023-05-07T15:27:25;24.50;51.10
72576;DHT22;60613;48.658;2.328;2023-05-07T15:29:51;24.60;51.30
72576;DHT22;60613;48.658;2.328;2023-05-07T15:32:17;24.60;51.30
72576;DHT22;60613;48.658;2.328;2023-05-07T15:34:43;24.50;51.10
72576;DHT22;60613;48.658;2.328;2023-05-07T15:37:08;24.50;51.10
72576;DHT22;60613;48.658;2.328;2023-05-07T15:39:35;24.50;51.10
72576;DHT22;60613;48.658;2.328;2023-05-07T15:42:00;24.60;51.30
72576;DHT22;60613;48.658;2.328;2023-05-07T15:44:26;24.60;51.00
72576;DHT22;60613;48.658;2.328;2023-05-07T15:46:54;24.60;51.20
72576;DHT22;60613;48.658;2.328;2023-05-07T15:49:19;24.60;51.00
72576;DHT22;60613;48.658;2.328;2023-05-07T15:51:47;24.60;50.90
72576;DHT22;60613;48.658;2.328;2023-05-07T15:54:13;24.70;50.60
72576;DHT22;60613;48.658;2.328;2023-05-07T15:56:39;24.60;50.40
72576;DHT22;60613;48.658;2.328;2023-05-07T15:59:04;24.70;50.60
72576;DHT22;60613;48.658;2.328;2023-05-07T16:01:30;24.70;50.60
72576;DHT22;60613;48.658;2.328;2023-05-07T16:03:56;24.70;50.40
72576;DHT22;60613;48.658;2.328;2023-05-07T16:06:22;24.70;51.50
72576;DHT22;60613;48.658;2.328;2023-05-07T16:08:47;24.70;50.30
72576;DHT22;60613;48.658;2.328;2023-05-07T16:11:13;24.70;50.20
72576;DHT22;60613;48.658;2.328;2023-05-07T16:13:39;24.80;50.20
72576;DHT22;60613;48.658;2.328;2023-05-07T16:16:04;24.70;50.20
72576;DHT22;60613;48.658;2.328;2023-05-07T16:18:30;24.80;49.80
72576;DHT22;60613;48.658;2.328;2023-05-07T16:20:57;24.90;50.00
72576;DHT22;60613;48.658;2.328;2023-05-07T16:23:25;24.80;49.80
72576;DHT22;60613;48.658;2.328;2023-05-07T16:25:50;24.80;49.20
72576;DHT22;60613;48.658;2.328;2023-05-07T16:28:16;24.80;49.70
72576;DHT22;60613;48.658;2.328;2023-05-07T16:30:41;24.80;49.60
72576;DHT22;60613;48.658;2.328;2023-05-07T16:33:07;24.80;49.90
72576;DHT22;60613;48.658;2.328;2023-05-07T16:35:33;24.90;50.10
72576;DHT22;60613;48.658;2.328;2023-05-07T16:37:58;24.90;49.70
72576;DHT22;60613;48.658;2.328;2023-05-07T16:40:24;25.00;49.50
72576;DHT22;60613;48.658;2.328;2023-05-07T16:42:50;25.00;49.20
72576;DHT22;60613;48.658;2.328;2023-05-07T16:45:15;25.00;49.00
72576;DHT22;60613;48.658;2.328;2023-05-07T16:47:43;25.00;48.90
72576;DHT22;60613;48.658;2.328;2023-05-07T16:50:09;25.00;49.00
72576;DHT22;60613;48.658;2.328;2023-05-07T16:52:35;25.10;49.40
72576;DHT22;60613;48.658;2.328;2023-05-07T16:55:01;25.00;49.50
72576;DHT22;60613;48.658;2.328;2023-05-07T16:57:28;25.10;49.60
72576;DHT22;60613;48.658;2.328;2023-05-07T16:59:55;25.10;49.70
72576;DHT22;60613;48.658;2.328;2023-05-07T17:02:21;25.10;49.80
72576;DHT22;60613;48.658;2.328;2023-05-07T17:04:47;25.10;50.00
72576;DHT22;60613;48.658;2.328;2023-05-07T17:07:12;25.10;50.00
72576;DHT22;60613;48.658;2.328;2023-05-07T17:09:39;25.10;50.00
72576;DHT22;60613;48.658;2.328;2023-05-07T17:12:05;25.10;49.90
72576;DHT22;60613;48.658;2.328;2023-05-07T17:14:30;25.10;49.80
72576;DHT22;60613;48.658;2.328;2023-05-07T17:16:56;25.10;49.80
72576;DHT22;60613;48.658;2.328;2023-05-07T17:19:22;25.10;49.80
72576;DHT22;60613;48.658;2.328;2023-05-07T17:21:47;25.10;50.10
72576;DHT22;60613;48.658;2.328;2023-05-07T17:24:13;25.10;49.80
72576;DHT22;60613;48.658;2.328;2023-05-07T17:26:39;25.20;49.60
72576;DHT22;60613;48.658;2.328;2023-05-07T17:29:07;25.20;49.70
72576;DHT22;60613;48.658;2.328;2023-05-07T17:31:33;25.20;49.80
72576;DHT22;60613;48.658;2.328;2023-05-07T17:33:58;25.20;49.60
72576;DHT22;60613;48.658;2.328;2023-05-07T17:36:24;25.20;49.70
72576;DHT22;60613;48.658;2.328;2023-05-07T17:38:50;25.20;49.70
72576;DHT22;60613;48.658;2.328;2023-05-07T17:41:15;25.20;49.50
72576;DHT22;60613;48.658;2.328;2023-05-07T17:43:41;25.20;50.10
72576;DHT22;60613;48.658;2.328;2023-05-07T17:46:08;25.20;50.20
72576;DHT22;60613;48.658;2.328;2023-05-07T17:48:33;25.20;50.20
72576;DHT22;60613;48.658;2.328;2023-05-07T17:51:02;25.10;50.20
72576;DHT22;60613;48.658;2.328;2023-05-07T17:53:28;25.10;50.00
72576;DHT22;60613;48.658;2.328;2023-05-07T17:55:54;25.10;50.50
72576;DHT22;60613;48.658;2.328;2023-05-07T17:58:20;25.10;50.60
72576;DHT22;60613;48.658;2.328;2023-05-07T18:00:47;25.10;50.70
72576;DHT22;60613;48.658;2.328;2023-05-07T18:03:12;25.10;50.80
72576;DHT22;60613;48.658;2.328;2023-05-07T18:05:38;25.10;52.00
72576;DHT22;60613;48.658;2.328;2023-05-07T18:08:05;25.10;50.80
72576;DHT22;60613;48.658;2.328;2023-05-07T18:10:31;25.20;50.80
72576;DHT22;60613;48.658;2.328;2023-05-07T18:12:57;25.20;50.80
72576;DHT22;60613;48.658;2.328;2023-05-07T18:15:22;25.20;50.80
72576;DHT22;60613;48.658;2.328;2023-05-07T18:17:48;25.20;50.70
72576;DHT22;60613;48.658;2.328;2023-05-07T18:20:13;25.20;50.70
72576;DHT22;60613;48.658;2.328;2023-05-07T18:22:39;25.20;50.70
72576;DHT22;60613;48.658;2.328;2023-05-07T18:25:06;25.20;50.90
72576;DHT22;60613;48.658;2.328;2023-05-07T18:27:31;25.20;51.10
72576;DHT22;60613;48.658;2.328;2023-05-07T18:29:57;25.20;50.70
72576;DHT22;60613;48.658;2.328;2023-05-07T18:32:23;25.20;51.10
72576;DHT22;60613;48.658;2.328;2023-05-07T18:34:48;25.10;51.00
72576;DHT22;60613;48.658;2.328;2023-05-07T18:37:14;25.10;51.40
72576;DHT22;60613;48.658;2.328;2023-05-07T18:39:43;25.10;51.30
72576;DHT22;60613;48.658;2.328;2023-05-07T18:42:09;25.10;51.20
72576;DHT22;60613;48.658;2.328;2023-05-07T18:44:34;25.20;51.10
72576;DHT22;60613;48.658;2.328;2023-05-07T18:47:03;25.20;51.10
72576;DHT22;60613;48.658;2.328;2023-05-07T18:49:29;25.10;51.00
72576;DHT22;60613;48.658;2.328;2023-05-07T18:51:55;25.10;51.20
72576;DHT22;60613;48.658;2.328;2023-05-07T18:54:21;25.10;51.20
72576;DHT22;60613;48.658;2.328;2023-05-07T18:56:47;25.10;51.60
72576;DHT22;60613;48.658;2.328;2023-05-07T18:59:12;25.00;51.60
